Time;durP1;ratioP1;P1;durP2;ratioP2;P2;SDS_P1;SDS_P2;PMS_P1;PMS_P2;Temp;Humidity;BMP_temperature;BMP_pressure;BME280_temperature;BME280_humidity;BME280_pressure;Samples;Min_cycle;Max_cycle;Signal;HPM_P1;HPM_P2
2021/03/08 00:00:18;;;;;;;17.38;10.05;;;;;;;;;;5063943;28;20020;-66
2021/03/08 00:02:43;;;;;;;16.17;9.55;;;;;;;;;;5060971;28;20044;-66
2021/03/08 00:05:09;;;;;;;20.10;10.05;;;;;;;;;;5060733;28;20024;-66
2021/03/08 00:07:34;;;;;;;15.90;9.75;;;;;;;;;;5071224;28;20025;-66
2021/03/08 00:09:59;;;;;;;19.25;10.00;;;;;;;;;;5052462;28;20163;-66
2021/03/08 00:12:24;;;;;;;20.90;10.32;;;;;;;;;;5052384;28;20032;-66
2021/03/08 00:14:50;;;;;;;19.02;9.95;;;;;;;;;;5055053;28;20112;-67
2021/03/08 00:17:16;;;;;;;20.35;10.48;;;;;;;;;;5056730;28;20036;-66
2021/03/08 00:19:41;;;;;;;16.35;9.80;;;;;;;;;;5063417;28;20017;-67
2021/03/08 00:22:07;;;;;;;20.05;11.48;;;;;;;;;;5057179;28;20033;-66
2021/03/08 00:24:32;;;;;;;18.27;10.48;;;;;;;;;;5058943;28;20028;-67
2021/03/08 00:26:57;;;;;;;17.90;10.27;;;;;;;;;;5070004;28;20024;-67
2021/03/08 00:29:22;;;;;;;23.98;11.02;;;;;;;;;;5060704;28;20134;-67
2021/03/08 00:31:47;;;;;;;19.33;10.57;;;;;;;;;;5067025;28;20025;-67
2021/03/08 00:34:12;;;;;;;20.42;11.55;;;;;;;;;;5062015;28;20067;-67
2021/03/08 00:36:38;;;;;;;21.05;10.00;;;;;;;;;;5065907;28;20048;-66
2021/03/08 00:39:03;;;;;;;17.23;9.60;;;;;;;;;;5063927;28;20107;-67
2021/03/08 00:41:28;;;;;;;22.70;10.73;;;;;;;;;;5058779;28;20092;-66
2021/03/08 00:43:53;;;;;;;16.35;10.43;;;;;;;;;;5061522;28;20059;-66
2021/03/08 00:46:19;;;;;;;18.40;10.18;;;;;;;;;;5058037;28;20017;-67
2021/03/08 00:48:44;;;;;;;19.90;11.48;;;;;;;;;;5055922;28;20073;-67
2021/03/08 00:51:09;;;;;;;17.67;10.15;;;;;;;;;;5054138;28;20027;-67
2021/03/08 00:53:34;;;;;;;21.13;11.55;;;;;;;;;;5050749;28;20455;-67
2021/03/08 00:55:59;;;;;;;20.50;9.95;;;;;;;;;;5052031;28;20438;-67
2021/03/08 00:58:24;;;;;;;17.90;10.35;;;;;;;;;;5056243;28;20025;-67
2021/03/08 01:00:50;;;;;;;21.77;11.15;;;;;;;;;;5060449;28;20035;-67
2021/03/08 01:03:15;;;;;;;22.02;10.45;;;;;;;;;;5056799;28;20055;-67
2021/03/08 01:05:40;;;;;;;16.33;9.40;;;;;;;;;;5066167;28;20069;-67
2021/03/08 01:08:06;;;;;;;20.40;10.80;;;;;;;;;;5054430;28;20102;-66
2021/03/08 01:10:31;;;;;;;23.95;11.48;;;;;;;;;;5074262;28;20058;-66
2021/03/08 01:12:56;;;;;;;18.38;10.55;;;;;;;;;;5069522;28;20020;-66
2021/03/08 01:15:22;;;;;;;17.40;10.40;;;;;;;;;;5061572;28;20017;-66
2021/03/08 01:17:47;;;;;;;17.02;9.90;;;;;;;;;;5065294;28;20024;-67
2021/03/08 01:20:16;;;;;;;19.73;10.65;;;;;;;;;;5051026;28;20013;-66
2021/03/08 01:22:42;;;;;;;21.70;10.87;;;;;;;;;;5058619;28;20358;-66
2021/03/08 01:25:12;;;;;;;19.58;11.15;;;;;;;;;;5055983;28;20107;-66
2021/03/08 01:27:37;;;;;;;22.95;11.38;;;;;;;;;;5065871;28;20024;-67
2021/03/08 01:30:04;;;;;;;18.33;10.65;;;;;;;;;;5060356;28;20029;-66
2021/03/08 01:32:30;;;;;;;24.25;12.15;;;;;;;;;;5065753;28;20079;-66
2021/03/08 01:34:55;;;;;;;20.27;11.20;;;;;;;;;;5053465;28;20505;-67
2021/03/08 01:37:20;;;;;;;26.02;11.60;;;;;;;;;;5060215;28;20028;-67
2021/03/08 01:39:45;;;;;;;20.40;11.27;;;;;;;;;;5055935;28;20420;-66
2021/03/08 01:42:10;;;;;;;19.10;10.38;;;;;;;;;;5057102;28;20032;-66
2021/03/08 01:44:36;;;;;;;19.60;10.80;;;;;;;;;;5055495;28;20029;-66
2021/03/08 01:47:01;;;;;;;23.50;10.70;;;;;;;;;;5063869;28;20469;-66
2021/03/08 01:49:26;;;;;;;23.52;10.98;;;;;;;;;;5066428;28;20546;-66
2021/03/08 01:51:51;;;;;;;16.48;9.85;;;;;;;;;;5067342;28;20037;-67
2021/03/08 01:54:17;;;;;;;16.20;10.18;;;;;;;;;;5059725;28;20021;-66
2021/03/08 01:56:42;;;;;;;21.85;11.35;;;;;;;;;;5062982;28;20021;-66
2021/03/08 01:59:07;;;;;;;21.65;11.52;;;;;;;;;;5066922;28;20016;-66
2021/03/08 02:01:33;;;;;;;21.55;10.40;;;;;;;;;;5059085;28;20017;-66
2021/03/08 02:03:58;;;;;;;25.75;10.55;;;;;;;;;;5062099;28;20103;-66
2021/03/08 02:06:23;;;;;;;21.60;10.52;;;;;;;;;;5060037;28;20107;-66
2021/03/08 02:08:48;;;;;;;20.25;10.45;;;;;;;;;;5067764;28;20071;-66
2021/03/08 02:11:14;;;;;;;19.52;11.15;;;;;;;;;;5063809;28;20021;-66
2021/03/08 02:13:47;;;;;;;17.42;10.45;;;;;;;;;;5058429;28;20025;-66
2021/03/08 02:16:15;;;;;;;18.60;10.70;;;;;;;;;;5069836;28;20031;-66
2021/03/08 02:18:52;;;;;;;23.08;10.70;;;;;;;;;;5066729;28;20035;-66
2021/03/08 02:21:27;;;;;;;19.95;11.35;;;;;;;;;;5064420;28;20029;-66
2021/03/08 02:24:06;;;;;;;22.42;11.07;;;;;;;;;;5068197;28;20129;-66
2021/03/08 02:26:38;;;;;;;19.38;10.60;;;;;;;;;;5057846;28;20029;-66
2021/03/08 02:29:09;;;;;;;20.90;11.20;;;;;;;;;;5062686;28;20463;-66
2021/03/08 02:31:34;;;;;;;17.58;11.27;;;;;;;;;;5063346;28;20102;-66
2021/03/08 02:34:08;;;;;;;21.17;11.40;;;;;;;;;;5059141;28;20056;-66
2021/03/08 02:36:39;;;;;;;29.38;10.85;;;;;;;;;;5058265;28;20087;-66
2021/03/08 02:39:09;;;;;;;18.60;10.05;;;;;;;;;;5057365;28;20069;-66
2021/03/08 02:41:34;;;;;;;19.13;11.13;;;;;;;;;;5061035;28;20108;-66
2021/03/08 02:44:03;;;;;;;21.23;10.48;;;;;;;;;;5068743;22;20730;-67
2021/03/08 02:46:33;;;;;;;21.35;11.98;;;;;;;;;;5052505;28;20044;-67
2021/03/08 02:49:01;;;;;;;25.23;10.88;;;;;;;;;;5052478;28;20025;-67
2021/03/08 02:51:27;;;;;;;18.00;10.43;;;;;;;;;;5052010;28;20063;-67
2021/03/08 02:53:56;;;;;;;21.50;11.20;;;;;;;;;;5052406;28;20028;-67
2021/03/08 02:56:23;;;;;;;18.00;11.23;;;;;;;;;;5052225;28;20037;-67
2021/03/08 02:58:49;;;;;;;19.88;11.32;;;;;;;;;;5044847;28;20032;-67
2021/03/08 03:01:15;;;;;;;22.10;11.85;;;;;;;;;;5052467;28;20035;-67
2021/03/08 03:03:43;;;;;;;21.95;11.18;;;;;;;;;;5052000;28;20078;-66
2021/03/08 03:06:09;;;;;;;21.67;10.68;;;;;;;;;;5053055;28;20033;-67
2021/03/08 03:08:36;;;;;;;23.55;11.32;;;;;;;;;;5034546;28;20020;-67
2021/03/08 03:11:01;;;;;;;23.75;12.20;;;;;;;;;;5052060;28;20032;-67
2021/03/08 03:13:27;;;;;;;22.85;11.93;;;;;;;;;;5052685;28;20025;-66
2021/03/08 03:15:53;;;;;;;19.63;11.38;;;;;;;;;;5052265;28;20027;-67
2021/03/08 03:18:18;;;;;;;24.33;11.82;;;;;;;;;;5034356;28;20029;-67
2021/03/08 03:20:45;;;;;;;21.30;12.23;;;;;;;;;;5052090;28;20021;-67
2021/03/08 03:23:11;;;;;;;20.75;11.38;;;;;;;;;;5051966;28;20013;-67
2021/03/08 03:25:37;;;;;;;22.17;12.23;;;;;;;;;;5045342;28;20027;-66
2021/03/08 03:28:02;;;;;;;22.25;11.32;;;;;;;;;;5050926;28;20035;-67
2021/03/08 03:30:28;;;;;;;22.38;11.00;;;;;;;;;;5051471;28;20104;-67
2021/03/08 03:32:54;;;;;;;33.58;11.82;;;;;;;;;;5052054;28;20021;-67
2021/03/08 03:35:20;;;;;;;19.90;11.15;;;;;;;;;;5050838;28;20072;-66
2021/03/08 03:37:46;;;;;;;20.33;11.40;;;;;;;;;;5052528;28;20111;-66
2021/03/08 03:40:13;;;;;;;20.00;10.02;;;;;;;;;;5069313;28;20048;-67
2021/03/08 03:42:39;;;;;;;19.98;12.07;;;;;;;;;;5053351;28;20028;-67
2021/03/08 03:45:05;;;;;;;27.10;12.13;;;;;;;;;;5052052;28;20025;-67
2021/03/08 03:47:31;;;;;;;21.38;10.77;;;;;;;;;;5051731;28;20025;-67
2021/03/08 03:49:58;;;;;;;17.80;10.30;;;;;;;;;;5050973;28;20036;-67
2021/03/08 03:52:23;;;;;;;22.25;10.50;;;;;;;;;;5051644;28;20089;-66
2021/03/08 03:54:48;;;;;;;25.27;12.02;;;;;;;;;;5050708;28;20037;-67
2021/03/08 03:57:14;;;;;;;21.05;10.48;;;;;;;;;;5051046;28;20429;-66
2021/03/08 03:59:45;;;;;;;20.70;10.63;;;;;;;;;;5051661;28;20473;-67
2021/03/08 04:02:49;;;;;;;22.48;12.18;;;;;;;;;;5051606;28;20021;-66
2021/03/08 04:05:17;;;;;;;26.15;11.05;;;;;;;;;;4988773;28;20026;-67
2021/03/08 04:07:44;;;;;;;22.92;11.40;;;;;;;;;;4989153;28;20037;-66
2021/03/08 04:10:10;;;;;;;20.55;12.02;;;;;;;;;;5018472;28;20041;-66
2021/03/08 04:12:36;;;;;;;23.67;11.85;;;;;;;;;;5047471;28;20033;-67
2021/03/08 04:15:22;;;;;;;18.52;10.40;;;;;;;;;;5051192;28;20025;-67
2021/03/08 04:17:48;;;;;;;23.50;11.48;;;;;;;;;;5043808;28;20166;-67
2021/03/08 04:20:15;;;;;;;22.35;11.45;;;;;;;;;;5051478;28;20025;-67
2021/03/08 04:22:41;;;;;;;22.05;10.68;;;;;;;;;;5051192;28;20071;-67
2021/03/08 04:25:08;;;;;;;17.98;9.50;;;;;;;;;;5050766;28;20025;-67
2021/03/08 04:27:33;;;;;;;26.45;10.85;;;;;;;;;;5050981;28;20064;-67
2021/03/08 04:29:59;;;;;;;23.02;10.52;;;;;;;;;;5050784;28;20098;-66
2021/03/08 04:32:25;;;;;;;21.63;10.00;;;;;;;;;;5050113;28;20033;-67
2021/03/08 04:34:50;;;;;;;22.50;10.77;;;;;;;;;;5050699;28;20136;-66
2021/03/08 04:37:16;;;;;;;24.08;12.35;;;;;;;;;;5032696;28;20082;-66
2021/03/08 04:39:42;;;;;;;29.15;12.50;;;;;;;;;;5050227;28;20342;-66
2021/03/08 04:42:08;;;;;;;21.05;10.70;;;;;;;;;;5040553;28;20052;-67
2021/03/08 04:44:34;;;;;;;23.65;11.95;;;;;;;;;;5044225;28;20078;-66
2021/03/08 04:47:00;;;;;;;19.58;11.25;;;;;;;;;;5047450;28;20534;-67
2021/03/08 04:49:26;;;;;;;27.30;11.38;;;;;;;;;;5032562;28;20123;-67
2021/03/08 04:51:51;;;;;;;25.08;11.13;;;;;;;;;;5050740;28;20095;-66
2021/03/08 04:54:17;;;;;;;21.80;11.85;;;;;;;;;;5050693;28;20043;-67
2021/03/08 04:56:43;;;;;;;24.13;11.43;;;;;;;;;;5049538;28;20029;-67
2021/03/08 04:59:09;;;;;;;24.27;11.95;;;;;;;;;;5050238;28;20043;-66
2021/03/08 05:01:35;;;;;;;23.02;11.00;;;;;;;;;;5049916;28;20050;-67
2021/03/08 05:04:06;;;;;;;24.05;12.13;;;;;;;;;;5050366;28;20123;-67
2021/03/08 05:06:33;;;;;;;26.42;12.30;;;;;;;;;;5032573;28;20548;-66
2021/03/08 05:09:00;;;;;;;21.90;10.95;;;;;;;;;;5032551;28;20028;-66
2021/03/08 05:11:26;;;;;;;21.83;10.57;;;;;;;;;;5049595;28;20032;-66
2021/03/08 05:13:51;;;;;;;26.60;11.18;;;;;;;;;;5050110;28;20039;-66
2021/03/08 05:16:17;;;;;;;28.27;12.27;;;;;;;;;;5050061;28;20031;-66
2021/03/08 05:18:43;;;;;;;22.85;11.10;;;;;;;;;;5050514;28;20095;-66
2021/03/08 05:21:10;;;;;;;17.27;10.27;;;;;;;;;;5049301;28;20402;-66
2021/03/08 05:23:36;;;;;;;24.50;10.23;;;;;;;;;;5050326;28;20127;-66
2021/03/08 05:26:01;;;;;;;23.98;11.70;;;;;;;;;;5048801;28;20025;-66
2021/03/08 05:28:28;;;;;;;22.95;12.18;;;;;;;;;;5050186;28;20070;-66
2021/03/08 05:30:55;;;;;;;20.77;11.30;;;;;;;;;;5049420;28;20025;-66
2021/03/08 05:33:22;;;;;;;26.02;11.20;;;;;;;;;;5050198;28;20025;-66
2021/03/08 05:35:49;;;;;;;23.33;12.07;;;;;;;;;;5048000;28;20017;-66
2021/03/08 05:38:15;;;;;;;22.35;10.10;;;;;;;;;;5046942;28;20047;-66
2021/03/08 05:40:52;;;;;;;25.90;11.63;;;;;;;;;;5064761;28;20540;-66
2021/03/08 05:43:18;;;;;;;25.65;12.13;;;;;;;;;;5050524;28;20013;-66
2021/03/08 05:45:47;;;;;;;23.02;10.32;;;;;;;;;;5049413;28;20051;-66
2021/03/08 05:48:21;;;;;;;20.40;10.73;;;;;;;;;;5051254;28;20033;-66
2021/03/08 05:51:05;;;;;;;22.50;11.95;;;;;;;;;;5069165;28;20028;-66
2021/03/08 05:53:41;;;;;;;20.52;11.20;;;;;;;;;;5054417;28;20614;-66
2021/03/08 05:56:09;;;;;;;28.05;11.73;;;;;;;;;;5052678;28;20068;-66
2021/03/08 05:58:46;;;;;;;32.15;12.75;;;;;;;;;;5052966;28;20035;-66
2021/03/08 06:01:30;;;;;;;23.75;11.82;;;;;;;;;;5053842;28;20067;-66
2021/03/08 06:03:55;;;;;;;26.20;12.70;;;;;;;;;;5046089;28;20029;-69
2021/03/08 06:06:39;;;;;;;26.70;11.13;;;;;;;;;;5051327;28;20096;-66
2021/03/08 06:09:23;;;;;;;27.85;12.70;;;;;;;;;;5051642;28;20770;-66
2021/03/08 06:12:08;;;;;;;23.75;12.90;;;;;;;;;;5048043;28;20028;-66
2021/03/08 06:14:36;;;;;;;23.13;11.82;;;;;;;;;;5049641;28;20120;-67
2021/03/08 06:17:02;;;;;;;27.98;12.38;;;;;;;;;;5051074;28;20017;-66
2021/03/08 06:19:29;;;;;;;23.92;9.90;;;;;;;;;;5051139;28;20029;-66
2021/03/08 06:21:55;;;;;;;23.92;10.90;;;;;;;;;;5051598;28;20053;-67
2021/03/08 06:24:20;;;;;;;23.63;12.90;;;;;;;;;;5051368;28;20063;-66
2021/03/08 06:26:46;;;;;;;21.52;9.85;;;;;;;;;;5050956;28;20021;-66
2021/03/08 06:29:11;;;;;;;28.17;11.70;;;;;;;;;;5047015;28;20021;-66
2021/03/08 06:31:36;;;;;;;32.80;13.52;;;;;;;;;;5050303;28;20032;-66
2021/03/08 06:34:02;;;;;;;30.02;13.95;;;;;;;;;;5051176;28;20029;-66
2021/03/08 06:36:28;;;;;;;26.13;13.35;;;;;;;;;;5051087;28;20063;-66
2021/03/08 06:38:53;;;;;;;17.55;10.23;;;;;;;;;;5050911;28;20033;-66
2021/03/08 06:41:19;;;;;;;30.13;14.35;;;;;;;;;;5045324;28;20026;-66
2021/03/08 06:43:44;;;;;;;30.67;13.20;;;;;;;;;;5042225;28;20021;-66
2021/03/08 06:46:12;;;;;;;29.38;14.65;;;;;;;;;;5050873;28;20020;-66
2021/03/08 06:48:38;;;;;;;25.63;12.68;;;;;;;;;;5050589;28;20025;-66
2021/03/08 06:51:09;;;;;;;27.70;13.45;;;;;;;;;;5050541;28;20083;-67
2021/03/08 06:53:34;;;;;;;28.63;14.00;;;;;;;;;;5051453;28;20083;-66
2021/03/08 06:56:12;;;;;;;25.23;10.57;;;;;;;;;;5049542;28;20810;-66
2021/03/08 06:58:37;;;;;;;26.58;12.02;;;;;;;;;;5050358;28;20424;-67
2021/03/08 07:01:02;;;;;;;26.75;14.77;;;;;;;;;;5051380;28;20027;-67
2021/03/08 07:03:31;;;;;;;31.45;13.75;;;;;;;;;;5053162;28;20021;-66
2021/03/08 07:06:10;;;;;;;27.90;13.25;;;;;;;;;;5052443;28;20485;-66
2021/03/08 07:08:35;;;;;;;30.98;14.27;;;;;;;;;;5052558;28;20525;-66
2021/03/08 07:11:12;;;;;;;23.02;12.23;;;;;;;;;;5051656;28;20131;-67
2021/03/08 07:13:37;;;;;;;29.63;14.02;;;;;;;;;;5052795;28;20095;-66
2021/03/08 07:16:03;;;;;;;35.45;15.23;;;;;;;;;;5052067;28;20439;-66
2021/03/08 07:18:29;;;;;;;26.27;14.02;;;;;;;;;;5052547;28;20025;-67
2021/03/08 07:21:13;;;;;;;26.48;14.27;;;;;;;;;;5048687;28;20024;-66
2021/03/08 07:23:39;;;;;;;31.98;15.77;;;;;;;;;;5043508;28;20056;-66
2021/03/08 07:26:05;;;;;;;35.88;14.82;;;;;;;;;;5043871;28;20024;-66
2021/03/08 07:28:30;;;;;;;32.00;14.85;;;;;;;;;;5041585;28;20047;-67
2021/03/08 07:30:56;;;;;;;33.97;15.63;;;;;;;;;;5041008;28;20029;-67
2021/03/08 07:33:23;;;;;;;31.60;15.88;;;;;;;;;;5052076;28;20067;-66
2021/03/08 07:35:49;;;;;;;35.97;15.60;;;;;;;;;;5042469;28;20462;-67
2021/03/08 07:38:34;;;;;;;33.13;14.18;;;;;;;;;;5049908;28;20035;-67
2021/03/08 07:41:16;;;;;;;35.10;15.88;;;;;;;;;;5051387;28;20039;-67
2021/03/08 07:43:42;;;;;;;28.55;14.55;;;;;;;;;;5032285;28;20049;-67
2021/03/08 07:46:26;;;;;;;33.38;14.30;;;;;;;;;;5047062;28;20090;-67
2021/03/08 07:48:51;;;;;;;34.63;15.07;;;;;;;;;;5044545;28;20107;-67
2021/03/08 07:51:16;;;;;;;34.25;14.77;;;;;;;;;;5048899;28;20107;-67
2021/03/08 07:53:41;;;;;;;48.75;15.38;;;;;;;;;;5051454;28;20032;-67
2021/03/08 07:56:08;;;;;;;34.08;13.80;;;;;;;;;;5051920;28;20575;-67
2021/03/08 07:58:34;;;;;;;35.05;15.23;;;;;;;;;;5051087;28;20112;-67
2021/03/08 08:01:00;;;;;;;31.92;14.70;;;;;;;;;;5051622;28;20120;-67
2021/03/08 08:03:26;;;;;;;33.60;15.38;;;;;;;;;;5051214;28;20021;-67
2021/03/08 08:05:52;;;;;;;41.28;18.33;;;;;;;;;;5046369;28;20470;-67
2021/03/08 08:08:18;;;;;;;36.38;18.13;;;;;;;;;;5051279;28;20044;-67
2021/03/08 08:10:43;;;;;;;33.85;17.35;;;;;;;;;;5051360;28;20493;-67
2021/03/08 08:13:10;;;;;;;38.60;18.05;;;;;;;;;;5051113;28;20048;-67
2021/03/08 08:15:36;;;;;;;36.03;15.00;;;;;;;;;;5046349;28;20513;-67
2021/03/08 08:18:02;;;;;;;40.28;18.83;;;;;;;;;;5040758;28;20021;-67
2021/03/08 08:20:28;;;;;;;44.20;17.45;;;;;;;;;;5051904;28;20020;-67
2021/03/08 08:22:56;;;;;;;39.25;18.10;;;;;;;;;;5057819;28;20017;-67
2021/03/08 08:25:22;;;;;;;40.47;19.20;;;;;;;;;;5031836;28;20020;-67
2021/03/08 08:27:48;;;;;;;41.78;18.80;;;;;;;;;;5047970;28;20029;-67
2021/03/08 08:30:13;;;;;;;43.50;17.02;;;;;;;;;;5048070;28;20025;-67
2021/03/08 08:32:52;;;;;;;54.55;20.33;;;;;;;;;;5050488;28;20053;-67
2021/03/08 08:35:28;;;;;;;46.22;20.25;;;;;;;;;;5050617;28;20166;-67
2021/03/08 08:38:11;;;;;;;43.25;17.42;;;;;;;;;;5049762;28;20021;-67
2021/03/08 08:40:37;;;;;;;46.55;21.58;;;;;;;;;;5052683;28;20017;-67
2021/03/08 08:43:15;;;;;;;46.92;20.40;;;;;;;;;;5052334;28;20473;-67
2021/03/08 08:45:43;;;;;;;45.92;20.02;;;;;;;;;;5097107;22;20044;-66
2021/03/08 08:48:10;;;;;;;51.25;21.80;;;;;;;;;;5089386;28;20020;-66
2021/03/08 08:50:44;;;;;;;50.13;19.33;;;;;;;;;;5089416;28;20020;-66
2021/03/08 08:53:09;;;;;;;44.08;21.02;;;;;;;;;;5090700;28;20060;-66
2021/03/08 08:55:34;;;;;;;45.85;19.33;;;;;;;;;;5083061;28;20028;-67
2021/03/08 08:58:18;;;;;;;47.15;19.15;;;;;;;;;;5077152;28;20046;-66
2021/03/08 09:01:03;;;;;;;45.53;21.02;;;;;;;;;;5083292;28;20259;-66
2021/03/08 09:03:47;;;;;;;48.75;21.73;;;;;;;;;;5085785;28;20503;-66
2021/03/08 09:06:31;;;;;;;48.00;20.98;;;;;;;;;;5071058;28;20488;-68
2021/03/08 09:08:56;;;;;;;53.58;20.48;;;;;;;;;;5084075;28;20024;-67
2021/03/08 09:11:40;;;;;;;53.15;24.90;;;;;;;;;;5083179;28;20085;-67
2021/03/08 09:14:24;;;;;;;47.17;22.65;;;;;;;;;;5081419;28;20081;-66
2021/03/08 09:16:55;;;;;;;54.22;24.92;;;;;;;;;;5076490;28;20020;-66
2021/03/08 09:19:23;;;;;;;50.20;23.05;;;;;;;;;;5073882;28;20277;-66
2021/03/08 09:21:48;;;;;;;47.80;22.27;;;;;;;;;;5090119;28;20062;-66
2021/03/08 09:24:33;;;;;;;51.13;23.20;;;;;;;;;;5087374;28;20068;-66
2021/03/08 09:26:58;;;;;;;63.97;25.35;;;;;;;;;;5076313;28;20070;-66
2021/03/08 09:29:23;;;;;;;49.00;23.35;;;;;;;;;;5084441;28;20023;-66
2021/03/08 09:31:50;;;;;;;53.22;23.50;;;;;;;;;;5081486;28;20546;-67
2021/03/08 09:34:15;;;;;;;59.67;26.20;;;;;;;;;;5073560;28;20100;-67
2021/03/08 09:36:40;;;;;;;55.03;26.40;;;;;;;;;;5070484;28;20108;-66
2021/03/08 09:39:05;;;;;;;63.42;25.90;;;;;;;;;;5075983;28;20417;-67
2021/03/08 09:41:30;;;;;;;58.55;26.90;;;;;;;;;;5071999;28;20036;-65
2021/03/08 09:43:56;;;;;;;72.20;31.30;;;;;;;;;;5077726;28;20023;-66
2021/03/08 09:46:21;;;;;;;63.53;28.25;;;;;;;;;;5085702;28;20032;-66
2021/03/08 09:48:54;;;;;;;74.00;29.05;;;;;;;;;;5073479;28;20435;-66
2021/03/08 09:51:19;;;;;;;63.38;27.67;;;;;;;;;;5076020;28;20035;-66
2021/03/08 09:53:52;;;;;;;66.20;30.15;;;;;;;;;;5080065;28;20025;-67
2021/03/08 09:56:18;;;;;;;67.20;28.27;;;;;;;;;;5070293;28;20512;-66
2021/03/08 09:58:44;;;;;;;90.95;37.22;;;;;;;;;;5073026;28;20031;-66
2021/03/08 10:01:13;;;;;;;80.47;36.05;;;;;;;;;;5080434;28;20012;-66
2021/03/08 10:03:39;;;;;;;84.97;38.53;;;;;;;;;;5073845;28;20025;-66
2021/03/08 10:06:04;;;;;;;88.18;37.88;;;;;;;;;;5073433;28;20303;-66
2021/03/08 10:08:30;;;;;;;94.15;38.80;;;;;;;;;;5088927;28;20098;-66
2021/03/08 10:10:55;;;;;;;99.63;41.60;;;;;;;;;;5078650;28;20349;-67
2021/03/08 10:13:22;;;;;;;94.25;39.05;;;;;;;;;;5083154;28;20464;-67
2021/03/08 10:15:48;;;;;;;92.78;39.20;;;;;;;;;;5081720;28;20386;-66
2021/03/08 10:18:15;;;;;;;95.88;41.97;;;;;;;;;;5081523;28;20476;-66
2021/03/08 10:21:07;;;;;;;94.78;39.83;;;;;;;;;;5073947;28;20398;-67
2021/03/08 10:23:36;;;;;;;91.57;39.75;;;;;;;;;;5067873;28;20067;-66
2021/03/08 10:26:05;;;;;;;103.82;42.10;;;;;;;;;;5079933;28;20024;-67
2021/03/08 10:28:35;;;;;;;102.13;41.85;;;;;;;;;;5091629;28;20023;-66
2021/03/08 10:31:01;;;;;;;100.93;41.00;;;;;;;;;;5091972;28;20089;-66
2021/03/08 10:33:27;;;;;;;116.45;43.45;;;;;;;;;;5090018;28;20115;-66
2021/03/08 10:35:54;;;;;;;107.72;44.15;;;;;;;;;;5091026;28;20099;-66
2021/03/08 10:38:22;;;;;;;110.07;42.90;;;;;;;;;;5080798;28;20045;-66
2021/03/08 10:40:47;;;;;;;102.03;39.92;;;;;;;;;;5084878;28;20077;-66
2021/03/08 10:43:13;;;;;;;102.38;42.58;;;;;;;;;;5086807;28;20020;-66
2021/03/08 10:45:38;;;;;;;103.05;41.28;;;;;;;;;;5081608;28;20118;-67
2021/03/08 10:48:04;;;;;;;109.80;40.92;;;;;;;;;;5073688;28;20020;-66
2021/03/08 10:50:39;;;;;;;108.18;40.47;;;;;;;;;;5080715;28;20024;-66
2021/03/08 10:53:05;;;;;;;113.32;43.08;;;;;;;;;;5086209;28;20028;-66
2021/03/08 10:55:30;;;;;;;104.30;40.72;;;;;;;;;;5086365;28;20039;-66
2021/03/08 10:57:55;;;;;;;105.18;43.22;;;;;;;;;;5088951;28;20062;-66
2021/03/08 11:00:21;;;;;;;95.38;40.67;;;;;;;;;;5081775;28;20061;-67
2021/03/08 11:02:46;;;;;;;101.50;42.58;;;;;;;;;;5085386;28;20016;-66
2021/03/08 11:05:12;;;;;;;99.88;42.95;;;;;;;;;;5086464;28;20495;-66
2021/03/08 11:07:37;;;;;;;113.95;43.92;;;;;;;;;;5088914;28;20024;-66
2021/03/08 11:10:03;;;;;;;106.38;43.35;;;;;;;;;;5084387;28;20016;-66
2021/03/08 11:12:28;;;;;;;109.93;46.53;;;;;;;;;;5088642;28;20016;-67
2021/03/08 11:14:55;;;;;;;118.15;45.50;;;;;;;;;;5091623;28;20119;-66
2021/03/08 11:17:35;;;;;;;108.25;42.47;;;;;;;;;;5091499;28;20020;-66
2021/03/08 11:20:07;;;;;;;102.32;41.45;;;;;;;;;;5074953;28;20024;-66
2021/03/08 11:22:47;;;;;;;101.57;43.25;;;;;;;;;;5083890;28;20019;-66
2021/03/08 11:25:23;;;;;;;103.82;41.58;;;;;;;;;;5085182;28;20012;-66
2021/03/08 11:27:48;;;;;;;104.13;40.65;;;;;;;;;;5084594;28;20032;-66
2021/03/08 11:30:14;;;;;;;102.47;42.17;;;;;;;;;;5082264;28;20035;-68
2021/03/08 11:32:40;;;;;;;129.57;50.10;;;;;;;;;;5085771;28;20036;-66
2021/03/08 11:35:19;;;;;;;107.38;46.85;;;;;;;;;;5087731;28;20472;-66
2021/03/08 11:37:48;;;;;;;110.20;47.55;;;;;;;;;;5084071;28;20051;-67
2021/03/08 11:40:14;;;;;;;112.18;43.70;;;;;;;;;;5074487;28;20016;-66
2021/03/08 11:42:39;;;;;;;119.80;49.00;;;;;;;;;;5076015;28;20029;-66
2021/03/08 11:45:05;;;;;;;120.88;48.03;;;;;;;;;;5072759;28;20074;-67
2021/03/08 11:47:30;;;;;;;128.70;50.05;;;;;;;;;;5076114;28;20337;-67
2021/03/08 11:49:56;;;;;;;120.78;48.22;;;;;;;;;;5084809;28;20035;-66
2021/03/08 11:52:21;;;;;;;120.40;46.47;;;;;;;;;;5087117;28;20097;-67
2021/03/08 11:54:46;;;;;;;114.07;45.17;;;;;;;;;;5091868;28;20471;-66
2021/03/08 11:57:12;;;;;;;114.18;45.13;;;;;;;;;;5085680;28;20051;-67
2021/03/08 11:59:37;;;;;;;117.70;44.53;;;;;;;;;;5086634;28;20024;-66
2021/03/08 12:02:02;;;;;;;108.20;47.05;;;;;;;;;;5084854;28;20020;-68
2021/03/08 12:04:28;;;;;;;122.28;48.58;;;;;;;;;;5082150;28;20017;-66
2021/03/08 12:06:53;;;;;;;113.47;46.78;;;;;;;;;;5075671;28;20051;-66
2021/03/08 12:09:19;;;;;;;116.90;46.22;;;;;;;;;;5081281;28;20380;-67
2021/03/08 12:11:44;;;;;;;109.90;47.53;;;;;;;;;;5088041;28;20391;-66
2021/03/08 12:14:10;;;;;;;122.93;48.67;;;;;;;;;;5088594;28;20020;-66
2021/03/08 12:16:35;;;;;;;110.80;46.20;;;;;;;;;;5078901;28;20414;-67
2021/03/08 12:19:00;;;;;;;108.18;45.33;;;;;;;;;;5084862;28;20611;-67
2021/03/08 12:21:26;;;;;;;106.45;49.08;;;;;;;;;;5075108;28;20025;-67
2021/03/08 12:23:51;;;;;;;111.40;49.92;;;;;;;;;;5079504;28;20026;-67
2021/03/08 12:26:17;;;;;;;110.13;45.60;;;;;;;;;;5072741;28;20023;-67
2021/03/08 12:28:42;;;;;;;97.72;41.40;;;;;;;;;;5080710;28;20029;-66
2021/03/08 12:31:07;;;;;;;106.55;46.10;;;;;;;;;;5084572;28;20349;-66
2021/03/08 12:33:33;;;;;;;108.63;42.42;;;;;;;;;;5075466;28;20036;-67
2021/03/08 12:35:59;;;;;;;105.70;42.92;;;;;;;;;;5071546;28;20430;-67
2021/03/08 12:38:24;;;;;;;105.07;43.53;;;;;;;;;;5088429;28;20026;-67
2021/03/08 12:40:49;;;;;;;108.68;44.38;;;;;;;;;;5079241;28;20016;-66
2021/03/08 12:43:14;;;;;;;112.45;45.05;;;;;;;;;;5077731;28;20357;-67
2021/03/08 12:45:40;;;;;;;112.55;44.40;;;;;;;;;;5079908;28;20052;-67
2021/03/08 12:48:05;;;;;;;106.00;44.25;;;;;;;;;;5083803;28;20024;-67
2021/03/08 12:50:30;;;;;;;108.18;43.88;;;;;;;;;;5088781;28;20028;-67
2021/03/08 12:52:55;;;;;;;104.88;45.70;;;;;;;;;;5090017;28;20034;-67
2021/03/08 12:55:20;;;;;;;102.93;43.40;;;;;;;;;;5081640;28;20027;-67
2021/03/08 12:57:46;;;;;;;109.20;44.95;;;;;;;;;;5075982;28;20097;-67
2021/03/08 13:00:11;;;;;;;107.43;45.92;;;;;;;;;;5080799;28;20020;-67
2021/03/08 13:02:36;;;;;;;115.60;46.90;;;;;;;;;;5081034;28;20083;-67
2021/03/08 13:05:02;;;;;;;107.15;45.40;;;;;;;;;;5073520;28;20129;-67
2021/03/08 13:07:27;;;;;;;112.95;46.45;;;;;;;;;;5084923;28;20152;-67
2021/03/08 13:09:52;;;;;;;118.80;48.30;;;;;;;;;;5084608;28;20035;-68
2021/03/08 13:12:18;;;;;;;119.78;52.20;;;;;;;;;;5078314;28;20659;-67
2021/03/08 13:14:45;;;;;;;118.15;51.05;;;;;;;;;;5078603;28;20025;-67
2021/03/08 13:17:12;;;;;;;122.10;51.35;;;;;;;;;;5082079;28;20074;-68
2021/03/08 13:19:37;;;;;;;124.32;53.03;;;;;;;;;;5083535;28;20115;-67
2021/03/08 13:22:02;;;;;;;119.57;50.93;;;;;;;;;;5071327;28;20048;-67
2021/03/08 13:24:27;;;;;;;121.78;52.90;;;;;;;;;;5078990;28;20630;-67
2021/03/08 13:26:52;;;;;;;119.78;52.85;;;;;;;;;;5076504;28;20020;-67
2021/03/08 13:29:18;;;;;;;123.90;54.05;;;;;;;;;;5082588;28;20541;-67
2021/03/08 13:31:44;;;;;;;127.85;53.80;;;;;;;;;;5074977;28;20077;-67
2021/03/08 13:34:09;;;;;;;127.97;55.13;;;;;;;;;;5073494;28;20031;-68
2021/03/08 13:36:34;;;;;;;127.40;55.17;;;;;;;;;;5079702;28;20024;-67
2021/03/08 13:38:59;;;;;;;134.18;56.00;;;;;;;;;;5074153;28;20060;-67
2021/03/08 13:41:25;;;;;;;144.27;56.70;;;;;;;;;;5074631;28;20024;-67
2021/03/08 13:43:50;;;;;;;139.18;65.30;;;;;;;;;;5079171;28;20262;-67
2021/03/08 13:46:15;;;;;;;143.73;61.20;;;;;;;;;;5081253;28;20073;-67
2021/03/08 13:48:40;;;;;;;139.85;62.55;;;;;;;;;;5076860;28;20538;-67
2021/03/08 13:51:06;;;;;;;137.25;60.22;;;;;;;;;;5083478;28;20032;-67
2021/03/08 13:53:31;;;;;;;144.98;61.08;;;;;;;;;;5079542;28;20028;-67
2021/03/08 13:55:57;;;;;;;145.40;59.85;;;;;;;;;;5086122;28;20050;-67
2021/03/08 13:58:22;;;;;;;151.05;62.70;;;;;;;;;;5081413;28;20409;-67
2021/03/08 14:00:47;;;;;;;143.20;61.37;;;;;;;;;;5074830;28;20081;-67
2021/03/08 14:03:12;;;;;;;145.00;62.22;;;;;;;;;;5077279;28;20263;-67
2021/03/08 14:05:37;;;;;;;143.95;61.80;;;;;;;;;;5079504;28;20035;-67
2021/03/08 14:08:03;;;;;;;162.85;64.97;;;;;;;;;;5082748;28;20032;-67
2021/03/08 14:10:28;;;;;;;157.77;63.20;;;;;;;;;;5090131;28;20384;-67
2021/03/08 14:12:53;;;;;;;165.03;65.17;;;;;;;;;;5086163;28;20035;-67
2021/03/08 14:15:18;;;;;;;155.32;62.90;;;;;;;;;;5083145;28;20286;-67